sensor_id;sensor_type;location;lat;lon;timestamp;temperature;humidity
983;DHT22;480;48.124;11.578;2023-06-10T00:01:52;19.10;99.90
983;DHT22;480;48.124;11.578;2023-06-10T00:04:21;19.10;99.90
983;DHT22;480;48.124;11.578;2023-06-10T00:06:48;19.10;99.90
983;DHT22;480;48.124;11.578;2023-06-10T00:09:16;19.10;99.90
983;DHT22;480;48.124;11.578;2023-06-10T00:11:44;19.10;99.90
983;DHT22;480;48.124;11.578;2023-06-10T00:14:11;19.00;99.90
983;DHT22;480;48.124;11.578;2023-06-10T00:16:38;18.90;99.90
983;DHT22;480;48.124;11.578;2023-06-10T00:19:05;18.90;99.90
983;DHT22;480;48.124;11.578;2023-06-10T00:21:34;18.90;99.90
983;DHT22;480;48.124;11.578;2023-06-10T00:24:03;18.90;99.90
983;DHT22;480;48.124;11.578;2023-06-10T00:26:32;18.80;99.90
983;DHT22;480;48.124;11.578;2023-06-10T00:28:59;18.80;99.90
983;DHT22;480;48.124;11.578;2023-06-10T00:31:26;18.70;99.90
983;DHT22;480;48.124;11.578;2023-06-10T00:33:53;18.60;99.90
983;DHT22;480;48.124;11.578;2023-06-10T00:36:20;18.70;99.90
983;DHT22;480;48.124;11.578;2023-06-10T00:38:47;18.60;99.90
983;DHT22;480;48.124;11.578;2023-06-10T00:41:14;18.60;99.90
983;DHT22;480;48.124;11.578;2023-06-10T00:43:42;18.60;99.90
983;DHT22;480;48.124;11.578;2023-06-10T00:46:10;18.60;99.90
983;DHT22;480;48.124;11.578;2023-06-10T00:48:39;18.60;99.90
983;DHT22;480;48.124;11.578;2023-06-10T00:51:07;18.50;99.90
983;DHT22;480;48.124;11.578;2023-06-10T00:53:35;18.40;99.90
983;DHT22;480;48.124;11.578;2023-06-10T00:56:02;18.30;99.90
983;DHT22;480;48.124;11.578;2023-06-10T00:58:30;18.30;99.90
983;DHT22;480;48.124;11.578;2023-06-10T01:00:59;18.30;99.90
983;DHT22;480;48.124;11.578;2023-06-10T01:03:26;18.20;99.90
983;DHT22;480;48.124;11.578;2023-06-10T01:05:59;18.10;99.90
983;DHT22;480;48.124;11.578;2023-06-10T01:08:35;18.30;99.90
983;DHT22;480;48.124;11.578;2023-06-10T01:11:08;18.30;99.90
983;DHT22;480;48.124;11.578;2023-06-10T01:13:38;18.10;99.90
983;DHT22;480;48.124;11.578;2023-06-10T01:16:09;17.80;99.90
983;DHT22;480;48.124;11.578;2023-06-10T01:18:36;17.70;99.90
983;DHT22;480;48.124;11.578;2023-06-10T01:21:04;17.70;99.90
983;DHT22;480;48.124;11.578;2023-06-10T01:23:34;17.70;99.90
983;DHT22;480;48.124;11.578;2023-06-10T01:26:05;17.70;99.90
983;DHT22;480;48.124;11.578;2023-06-10T01:28:38;17.70;99.90
983;DHT22;480;48.124;11.578;2023-06-10T01:31:13;17.60;99.90
983;DHT22;480;48.124;11.578;2023-06-10T01:33:45;17.70;99.90
983;DHT22;480;48.124;11.578;2023-06-10T01:36:13;17.80;99.90
983;DHT22;480;48.124;11.578;2023-06-10T01:38:45;17.80;99.90
983;DHT22;480;48.124;11.578;2023-06-10T01:41:14;17.80;99.90
983;DHT22;480;48.124;11.578;2023-06-10T01:43:43;17.90;99.90
983;DHT22;480;48.124;11.578;2023-06-10T01:46:11;17.80;99.90
983;DHT22;480;48.124;11.578;2023-06-10T01:48:38;17.80;99.90
983;DHT22;480;48.124;11.578;2023-06-10T01:51:05;17.70;99.90
983;DHT22;480;48.124;11.578;2023-06-10T01:53:32;17.80;99.90
983;DHT22;480;48.124;11.578;2023-06-10T01:56:00;17.80;99.90
983;DHT22;480;48.124;11.578;2023-06-10T01:58:27;17.70;99.90
983;DHT22;480;48.124;11.578;2023-06-10T02:00:54;17.70;99.90
983;DHT22;480;48.124;11.578;2023-06-10T02:03:22;17.80;99.90
983;DHT22;480;48.124;11.578;2023-06-10T02:05:51;17.90;99.90
983;DHT22;480;48.124;11.578;2023-06-10T02:08:18;18.00;99.90
983;DHT22;480;48.124;11.578;2023-06-10T02:10:45;18.00;99.90
983;DHT22;480;48.124;11.578;2023-06-10T02:13:13;18.10;99.90
983;DHT22;480;48.124;11.578;2023-06-10T02:15:40;18.10;99.90
983;DHT22;480;48.124;11.578;2023-06-10T02:18:07;18.00;99.90
983;DHT22;480;48.124;11.578;2023-06-10T02:20:35;17.90;99.90
983;DHT22;480;48.124;11.578;2023-06-10T02:23:02;17.90;99.90
983;DHT22;480;48.124;11.578;2023-06-10T02:25:29;18.00;99.90
983;DHT22;480;48.124;11.578;2023-06-10T02:27:56;18.10;99.90
983;DHT22;480;48.124;11.578;2023-06-10T02:30:25;18.10;99.90
983;DHT22;480;48.124;11.578;2023-06-10T02:32:52;18.20;99.90
983;DHT22;480;48.124;11.578;2023-06-10T02:35:19;18.20;99.90
983;DHT22;480;48.124;11.578;2023-06-10T02:37:46;18.30;99.90
983;DHT22;480;48.124;11.578;2023-06-10T02:40:13;18.40;99.90
983;DHT22;480;48.124;11.578;2023-06-10T02:42:40;18.40;99.90
983;DHT22;480;48.124;11.578;2023-06-10T02:45:08;18.40;99.90
983;DHT22;480;48.124;11.578;2023-06-10T02:47:37;18.40;99.90
983;DHT22;480;48.124;11.578;2023-06-10T02:50:06;18.10;99.90
983;DHT22;480;48.124;11.578;2023-06-10T02:52:33;18.10;99.90
983;DHT22;480;48.124;11.578;2023-06-10T02:55:00;18.20;99.90
983;DHT22;480;48.124;11.578;2023-06-10T02:57:27;18.20;99.90
983;DHT22;480;48.124;11.578;2023-06-10T02:59:54;18.20;99.90
983;DHT22;480;48.124;11.578;2023-06-10T03:02:21;18.30;99.90
983;DHT22;480;48.124;11.578;2023-06-10T03:04:55;18.30;99.90
983;DHT22;480;48.124;11.578;2023-06-10T03:07:22;18.40;99.90
983;DHT22;480;48.124;11.578;2023-06-10T03:09:50;18.40;99.90
983;DHT22;480;48.124;11.578;2023-06-10T03:12:17;18.40;99.90
983;DHT22;480;48.124;11.578;2023-06-10T03:14:44;18.40;99.90
983;DHT22;480;48.124;11.578;2023-06-10T03:17:11;18.40;99.90
983;DHT22;480;48.124;11.578;2023-06-10T03:19:38;18.40;99.90
983;DHT22;480;48.124;11.578;2023-06-10T03:22:12;18.30;99.90
983;DHT22;480;48.124;11.578;2023-06-10T03:24:39;18.30;99.90
983;DHT22;480;48.124;11.578;2023-06-10T03:27:07;18.20;99.90
983;DHT22;480;48.124;11.578;2023-06-10T03:29:35;18.10;99.90
983;DHT22;480;48.124;11.578;2023-06-10T03:32:02;18.00;99.90
983;DHT22;480;48.124;11.578;2023-06-10T03:34:29;17.80;99.90
983;DHT22;480;48.124;11.578;2023-06-10T03:36:56;17.70;99.90
983;DHT22;480;48.124;11.578;2023-06-10T03:39:25;17.60;99.90
983;DHT22;480;48.124;11.578;2023-06-10T03:41:54;17.50;99.90
983;DHT22;480;48.124;11.578;2023-06-10T03:44:23;17.40;99.90
983;DHT22;480;48.124;11.578;2023-06-10T03:46:51;17.50;99.90
983;DHT22;480;48.124;11.578;2023-06-10T03:49:18;17.50;99.90
983;DHT22;480;48.124;11.578;2023-06-10T03:51:45;17.60;99.90
983;DHT22;480;48.124;11.578;2023-06-10T03:54:12;17.60;99.90
983;DHT22;480;48.124;11.578;2023-06-10T03:56:41;17.60;99.90
983;DHT22;480;48.124;11.578;2023-06-10T03:59:08;17.50;99.90
983;DHT22;480;48.124;11.578;2023-06-10T04:01:35;17.40;99.90
983;DHT22;480;48.124;11.578;2023-06-10T04:04:03;17.30;99.90
983;DHT22;480;48.124;11.578;2023-06-10T04:06:30;17.40;99.90
983;DHT22;480;48.124;11.578;2023-06-10T04:08:57;17.40;99.90
983;DHT22;480;48.124;11.578;2023-06-10T04:11:24;17.40;99.90
983;DHT22;480;48.124;11.578;2023-06-10T04:13:53;17.50;99.90
983;DHT22;480;48.124;11.578;2023-06-10T04:16:20;17.60;99.90
983;DHT22;480;48.124;11.578;2023-06-10T04:18:47;17.70;99.90
983;DHT22;480;48.124;11.578;2023-06-10T04:21:15;17.50;99.90
983;DHT22;480;48.124;11.578;2023-06-10T04:23:42;17.30;99.90
983;DHT22;480;48.124;11.578;2023-06-10T04:26:09;17.40;99.90
983;DHT22;480;48.124;11.578;2023-06-10T04:28:37;17.50;99.90
983;DHT22;480;48.124;11.578;2023-06-10T04:31:06;17.50;99.90
983;DHT22;480;48.124;11.578;2023-06-10T04:33:35;17.40;99.90
983;DHT22;480;48.124;11.578;2023-06-10T04:36:02;17.50;99.90
983;DHT22;480;48.124;11.578;2023-06-10T04:38:29;17.60;99.90
983;DHT22;480;48.124;11.578;2023-06-10T04:40:56;17.70;99.90
983;DHT22;480;48.124;11.578;2023-06-10T04:43:23;17.70;99.90
983;DHT22;480;48.124;11.578;2023-06-10T04:45:50;17.70;99.90
983;DHT22;480;48.124;11.578;2023-06-10T04:48:19;17.50;99.90
983;DHT22;480;48.124;11.578;2023-06-10T04:50:46;17.60;99.90
983;DHT22;480;48.124;11.578;2023-06-10T04:53:13;17.40;99.90
983;DHT22;480;48.124;11.578;2023-06-10T04:55:40;17.50;99.90
983;DHT22;480;48.124;11.578;2023-06-10T04:58:07;17.70;99.90
983;DHT22;480;48.124;11.578;2023-06-10T05:00:34;17.80;99.90
983;DHT22;480;48.124;11.578;2023-06-10T05:03:01;17.90;99.90
983;DHT22;480;48.124;11.578;2023-06-10T05:05:30;17.90;99.90
983;DHT22;480;48.124;11.578;2023-06-10T05:07:57;18.00;99.90
983;DHT22;480;48.124;11.578;2023-06-10T05:10:24;18.00;99.90
983;DHT22;480;48.124;11.578;2023-06-10T05:12:51;18.10;99.90
983;DHT22;480;48.124;11.578;2023-06-10T05:15:18;18.00;99.90
983;DHT22;480;48.124;11.578;2023-06-10T05:17:45;18.10;99.90
983;DHT22;480;48.124;11.578;2023-06-10T05:20:13;18.20;99.90
983;DHT22;480;48.124;11.578;2023-06-10T05:22:42;18.30;99.90
983;DHT22;480;48.124;11.578;2023-06-10T05:25:10;18.40;99.90
983;DHT22;480;48.124;11.578;2023-06-10T05:27:37;18.40;99.90
983;DHT22;480;48.124;11.578;2023-06-10T05:30:07;18.50;99.90
983;DHT22;480;48.124;11.578;2023-06-10T05:32:34;18.60;99.90
983;DHT22;480;48.124;11.578;2023-06-10T05:35:01;18.60;99.90
983;DHT22;480;48.124;11.578;2023-06-10T05:37:30;18.60;99.90
983;DHT22;480;48.124;11.578;2023-06-10T05:39:58;18.40;99.90
983;DHT22;480;48.124;11.578;2023-06-10T05:42:26;18.30;99.90
983;DHT22;480;48.124;11.578;2023-06-10T05:44:53;17.90;99.90
983;DHT22;480;48.124;11.578;2023-06-10T05:47:20;17.80;99.90
983;DHT22;480;48.124;11.578;2023-06-10T05:49:47;17.60;99.90
983;DHT22;480;48.124;11.578;2023-06-10T05:52:15;17.70;99.90
983;DHT22;480;48.124;11.578;2023-06-10T05:54:42;17.80;99.90
983;DHT22;480;48.124;11.578;2023-06-10T05:57:11;17.90;99.90
983;DHT22;480;48.124;11.578;2023-06-10T05:59:38;17.90;99.90
983;DHT22;480;48.124;11.578;2023-06-10T06:02:05;18.30;99.90
983;DHT22;480;48.124;11.578;2023-06-10T06:04:33;18.60;99.90
983;DHT22;480;48.124;11.578;2023-06-10T06:07:00;18.90;99.90
983;DHT22;480;48.124;11.578;2023-06-10T06:09:27;18.90;99.90
983;DHT22;480;48.124;11.578;2023-06-10T06:11:54;18.60;99.90
983;DHT22;480;48.124;11.578;2023-06-10T06:14:23;18.80;99.90
983;DHT22;480;48.124;11.578;2023-06-10T06:16:50;19.20;99.90
983;DHT22;480;48.124;11.578;2023-06-10T06:19:17;19.50;99.90
983;DHT22;480;48.124;11.578;2023-06-10T06:21:44;19.10;99.90
983;DHT22;480;48.124;11.578;2023-06-10T06:24:11;18.90;99.90
983;DHT22;480;48.124;11.578;2023-06-10T06:26:38;18.90;99.90
983;DHT22;480;48.124;11.578;2023-06-10T06:29:06;18.90;99.90
983;DHT22;480;48.124;11.578;2023-06-10T06:31:35;19.00;99.90
983;DHT22;480;48.124;11.578;2023-06-10T06:34:02;18.80;99.90
983;DHT22;480;48.124;11.578;2023-06-10T06:36:29;19.10;99.90
983;DHT22;480;48.124;11.578;2023-06-10T06:38:56;19.20;99.90
983;DHT22;480;48.124;11.578;2023-06-10T06:41:24;19.50;99.90
983;DHT22;480;48.124;11.578;2023-06-10T06:43:53;19.60;99.90
983;DHT22;480;48.124;11.578;2023-06-10T06:46:21;19.40;99.90
983;DHT22;480;48.124;11.578;2023-06-10T06:48:51;19.40;99.90
983;DHT22;480;48.124;11.578;2023-06-10T06:51:18;19.40;99.90
983;DHT22;480;48.124;11.578;2023-06-10T06:53:48;19.30;99.90
983;DHT22;480;48.124;11.578;2023-06-10T06:56:17;19.60;99.90
983;DHT22;480;48.124;11.578;2023-06-10T06:58:44;19.70;99.90
983;DHT22;480;48.124;11.578;2023-06-10T07:01:11;19.60;99.90
983;DHT22;480;48.124;11.578;2023-06-10T07:03:38;19.50;99.90
983;DHT22;480;48.124;11.578;2023-06-10T07:06:07;19.90;99.90
983;DHT22;480;48.124;11.578;2023-06-10T07:08:34;20.10;99.90
983;DHT22;480;48.124;11.578;2023-06-10T07:11:01;20.20;99.90
983;DHT22;480;48.124;11.578;2023-06-10T07:13:28;20.20;99.90
983;DHT22;480;48.124;11.578;2023-06-10T07:15:55;20.30;99.90
983;DHT22;480;48.124;11.578;2023-06-10T07:18:22;20.40;99.90
983;DHT22;480;48.124;11.578;2023-06-10T07:20:49;20.60;99.90
983;DHT22;480;48.124;11.578;2023-06-10T07:23:17;20.70;99.90
983;DHT22;480;48.124;11.578;2023-06-10T07:25:44;20.80;99.90
983;DHT22;480;48.124;11.578;2023-06-10T07:28:11;21.00;99.90
983;DHT22;480;48.124;11.578;2023-06-10T07:30:38;21.20;99.90
983;DHT22;480;48.124;11.578;2023-06-10T07:33:05;20.90;99.90
983;DHT22;480;48.124;11.578;2023-06-10T07:35:33;20.90;99.90
983;DHT22;480;48.124;11.578;2023-06-10T07:38:00;20.80;99.90
983;DHT22;480;48.124;11.578;2023-06-10T07:40:29;21.00;99.90
983;DHT22;480;48.124;11.578;2023-06-10T07:42:56;21.10;99.90
983;DHT22;480;48.124;11.578;2023-06-10T07:45:23;21.40;99.90
983;DHT22;480;48.124;11.578;2023-06-10T07:47:51;21.60;99.90
983;DHT22;480;48.124;11.578;2023-06-10T07:50:18;21.10;99.90
983;DHT22;480;48.124;11.578;2023-06-10T07:52:45;21.30;99.90
983;DHT22;480;48.124;11.578;2023-06-10T07:55:12;21.50;99.90
983;DHT22;480;48.124;11.578;2023-06-10T07:57:40;21.80;99.90
983;DHT22;480;48.124;11.578;2023-06-10T08:00:08;22.10;99.90
983;DHT22;480;48.124;11.578;2023-06-10T08:02:35;22.30;99.90
983;DHT22;480;48.124;11.578;2023-06-10T08:05:04;22.30;99.90
983;DHT22;480;48.124;11.578;2023-06-10T08:07:31;21.80;99.90
983;DHT22;480;48.124;11.578;2023-06-10T08:09:58;21.80;99.90
983;DHT22;480;48.124;11.578;2023-06-10T08:12:25;22.20;99.90
983;DHT22;480;48.124;11.578;2023-06-10T08:14:54;22.50;99.90
983;DHT22;480;48.124;11.578;2023-06-10T08:17:21;22.80;99.90
983;DHT22;480;48.124;11.578;2023-06-10T08:19:48;23.00;99.90
983;DHT22;480;48.124;11.578;2023-06-10T08:22:15;22.90;99.90
983;DHT22;480;48.124;11.578;2023-06-10T08:24:42;23.00;99.90
983;DHT22;480;48.124;11.578;2023-06-10T08:27:09;23.00;99.90
983;DHT22;480;48.124;11.578;2023-06-10T08:29:40;23.00;99.90
983;DHT22;480;48.124;11.578;2023-06-10T08:32:09;22.80;99.90
983;DHT22;480;48.124;11.578;2023-06-10T08:34:36;22.70;99.90
983;DHT22;480;48.124;11.578;2023-06-10T08:37:04;22.70;99.90
983;DHT22;480;48.124;11.578;2023-06-10T08:39:31;22.40;99.90
983;DHT22;480;48.124;11.578;2023-06-10T08:42:33;22.20;99.90
983;DHT22;480;48.124;11.578;2023-06-10T08:45:02;22.00;99.90
983;DHT22;480;48.124;11.578;2023-06-10T08:47:30;22.40;99.90
983;DHT22;480;48.124;11.578;2023-06-10T08:50:08;22.30;99.90
983;DHT22;480;48.124;11.578;2023-06-10T08:52:37;22.30;99.90
983;DHT22;480;48.124;11.578;2023-06-10T08:55:10;22.50;99.90
983;DHT22;480;48.124;11.578;2023-06-10T08:57:40;22.80;99.90
983;DHT22;480;48.124;11.578;2023-06-10T09:00:11;23.00;99.90
983;DHT22;480;48.124;11.578;2023-06-10T09:02:39;23.10;99.90
983;DHT22;480;48.124;11.578;2023-06-10T09:05:07;23.00;99.90
983;DHT22;480;48.124;11.578;2023-06-10T09:07:38;22.60;99.90
983;DHT22;480;48.124;11.578;2023-06-10T09:10:06;22.60;99.90
983;DHT22;480;48.124;11.578;2023-06-10T09:12:34;22.90;99.90
983;DHT22;480;48.124;11.578;2023-06-10T09:15:04;23.00;99.90
983;DHT22;480;48.124;11.578;2023-06-10T09:17:32;23.00;99.90
983;DHT22;480;48.124;11.578;2023-06-10T09:20:00;23.00;99.90
983;DHT22;480;48.124;11.578;2023-06-10T09:22:29;23.20;99.90
983;DHT22;480;48.124;11.578;2023-06-10T09:25:06;23.30;99.90
983;DHT22;480;48.124;11.578;2023-06-10T09:27:44;23.40;99.90
983;DHT22;480;48.124;11.578;2023-06-10T09:30:24;23.50;99.90
983;DHT22;480;48.124;11.578;2023-06-10T09:32:53;23.50;99.90
983;DHT22;480;48.124;11.578;2023-06-10T09:35:22;23.50;99.90
983;DHT22;480;48.124;11.578;2023-06-10T09:37:51;23.60;99.90
983;DHT22;480;48.124;11.578;2023-06-10T09:40:18;23.70;99.90
983;DHT22;480;48.124;11.578;2023-06-10T09:42:45;23.80;99.90
983;DHT22;480;48.124;11.578;2023-06-10T09:45:21;23.80;99.90
983;DHT22;480;48.124;11.578;2023-06-10T09:47:51;23.80;99.90
983;DHT22;480;48.124;11.578;2023-06-10T09:50:19;23.70;99.90
983;DHT22;480;48.124;11.578;2023-06-10T09:52:47;23.90;99.90
983;DHT22;480;48.124;11.578;2023-06-10T09:55:14;24.10;99.90
983;DHT22;480;48.124;11.578;2023-06-10T09:57:41;24.00;99.90
983;DHT22;480;48.124;11.578;2023-06-10T10:00:14;23.90;99.90
983;DHT22;480;48.124;11.578;2023-06-10T10:02:47;23.80;99.90
983;DHT22;480;48.124;11.578;2023-06-10T10:05:17;23.90;99.90
983;DHT22;480;48.124;11.578;2023-06-10T10:07:45;24.10;99.90
983;DHT22;480;48.124;11.578;2023-06-10T10:10:14;24.20;99.90
983;DHT22;480;48.124;11.578;2023-06-10T10:12:42;24.40;99.90
983;DHT22;480;48.124;11.578;2023-06-10T10:15:11;24.40;99.90
983;DHT22;480;48.124;11.578;2023-06-10T10:17:40;24.30;99.90
983;DHT22;480;48.124;11.578;2023-06-10T10:20:13;23.90;99.90
983;DHT22;480;48.124;11.578;2023-06-10T10:22:43;23.80;99.90
983;DHT22;480;48.124;11.578;2023-06-10T10:25:13;23.80;99.90
983;DHT22;480;48.124;11.578;2023-06-10T10:28:04;23.80;99.90
983;DHT22;480;48.124;11.578;2023-06-10T10:30:39;23.70;99.90
983;DHT22;480;48.124;11.578;2023-06-10T10:33:12;23.90;99.90
983;DHT22;480;48.124;11.578;2023-06-10T10:35:41;24.30;99.90
983;DHT22;480;48.124;11.578;2023-06-10T10:38:09;24.40;99.90
983;DHT22;480;48.124;11.578;2023-06-10T10:40:37;24.60;99.90
983;DHT22;480;48.124;11.578;2023-06-10T10:43:06;24.50;99.90
983;DHT22;480;48.124;11.578;2023-06-10T10:45:35;24.50;99.90
983;DHT22;480;48.124;11.578;2023-06-10T10:48:06;24.30;99.90
983;DHT22;480;48.124;11.578;2023-06-10T10:50:37;23.90;99.90
983;DHT22;480;48.124;11.578;2023-06-10T10:53:05;24.30;99.90
983;DHT22;480;48.124;11.578;2023-06-10T10:55:36;24.60;99.90
983;DHT22;480;48.124;11.578;2023-06-10T10:58:24;24.90;99.90
983;DHT22;480;48.124;11.578;2023-06-10T11:00:51;25.40;99.90
983;DHT22;480;48.124;11.578;2023-06-10T11:03:19;25.40;99.90
983;DHT22;480;48.124;11.578;2023-06-10T11:05:47;25.10;99.90
983;DHT22;480;48.124;11.578;2023-06-10T11:08:45;25.10;99.90
983;DHT22;480;48.124;11.578;2023-06-10T11:11:23;25.50;99.90
983;DHT22;480;48.124;11.578;2023-06-10T11:14:09;25.90;99.90
983;DHT22;480;48.124;11.578;2023-06-10T11:16:40;25.80;99.80
983;DHT22;480;48.124;11.578;2023-06-10T11:19:08;25.50;99.50
983;DHT22;480;48.124;11.578;2023-06-10T11:21:57;26.10;99.90
983;DHT22;480;48.124;11.578;2023-06-10T11:24:25;27.10;99.90
983;DHT22;480;48.124;11.578;2023-06-10T11:26:54;27.40;97.90
983;DHT22;480;48.124;11.578;2023-06-10T11:29:22;27.10;97.40
983;DHT22;480;48.124;11.578;2023-06-10T11:31:50;26.30;98.80
983;DHT22;480;48.124;11.578;2023-06-10T11:34:27;26.40;98.90
983;DHT22;480;48.124;11.578;2023-06-10T11:36:55;25.90;99.30
983;DHT22;480;48.124;11.578;2023-06-10T11:39:26;25.40;99.80
983;DHT22;480;48.124;11.578;2023-06-10T11:41:56;25.30;99.90
983;DHT22;480;48.124;11.578;2023-06-10T11:44:27;24.90;99.90
983;DHT22;480;48.124;11.578;2023-06-10T11:46:56;24.50;99.90
983;DHT22;480;48.124;11.578;2023-06-10T11:49:23;24.50;99.90
983;DHT22;480;48.124;11.578;2023-06-10T11:51:51;24.50;99.90
983;DHT22;480;48.124;11.578;2023-06-10T11:54:18;25.30;99.90
983;DHT22;480;48.124;11.578;2023-06-10T11:56:46;25.90;99.90
983;DHT22;480;48.124;11.578;2023-06-10T11:59:16;26.30;98.10
983;DHT22;480;48.124;11.578;2023-06-10T12:01:44;25.60;96.80
983;DHT22;480;48.124;11.578;2023-06-10T12:04:12;25.50;97.80
983;DHT22;480;48.124;11.578;2023-06-10T12:06:43;25.50;98.20
983;DHT22;480;48.124;11.578;2023-06-10T12:09:19;25.40;97.80
983;DHT22;480;48.124;11.578;2023-06-10T12:11:49;26.20;98.10
983;DHT22;480;48.124;11.578;2023-06-10T12:17:39;27.80;96.50
983;DHT22;480;48.124;11.578;2023-06-10T12:20:07;27.90;96.10
983;DHT22;480;48.124;11.578;2023-06-10T12:22:38;28.20;95.20
983;DHT22;480;48.124;11.578;2023-06-10T12:25:07;27.80;95.30
983;DHT22;480;48.124;11.578;2023-06-10T12:27:34;27.80;95.40
983;DHT22;480;48.124;11.578;2023-06-10T12:30:04;28.20;94.30
983;DHT22;480;48.124;11.578;2023-06-10T12:32:40;28.60;94.30
983;DHT22;480;48.124;11.578;2023-06-10T12:35:09;28.90;93.30
983;DHT22;480;48.124;11.578;2023-06-10T12:37:36;28.90;94.00
983;DHT22;480;48.124;11.578;2023-06-10T12:40:05;29.10;93.00
983;DHT22;480;48.124;11.578;2023-06-10T12:42:33;28.30;94.00
983;DHT22;480;48.124;11.578;2023-06-10T12:45:01;27.40;93.10
983;DHT22;480;48.124;11.578;2023-06-10T12:47:32;27.70;94.40
983;DHT22;480;48.124;11.578;2023-06-10T12:50:03;27.80;94.40
983;DHT22;480;48.124;11.578;2023-06-10T12:52:31;27.70;94.10
983;DHT22;480;48.124;11.578;2023-06-10T12:54:58;28.20;93.90
983;DHT22;480;48.124;11.578;2023-06-10T12:57:26;27.90;93.40
983;DHT22;480;48.124;11.578;2023-06-10T12:59:53;28.10;94.10
983;DHT22;480;48.124;11.578;2023-06-10T13:02:23;28.50;93.80
983;DHT22;480;48.124;11.578;2023-06-10T13:04:50;28.90;93.90
983;DHT22;480;48.124;11.578;2023-06-10T13:07:20;28.50;95.50
983;DHT22;480;48.124;11.578;2023-06-10T13:09:48;27.80;96.70
983;DHT22;480;48.124;11.578;2023-06-10T13:12:15;26.60;98.50
983;DHT22;480;48.124;11.578;2023-06-10T13:14:43;25.80;99.10
983;DHT22;480;48.124;11.578;2023-06-10T13:17:10;25.40;99.90
983;DHT22;480;48.124;11.578;2023-06-10T13:19:37;25.30;99.90
983;DHT22;480;48.124;11.578;2023-06-10T13:22:06;25.80;99.90
983;DHT22;480;48.124;11.578;2023-06-10T13:24:36;26.10;99.90
983;DHT22;480;48.124;11.578;2023-06-10T13:27:06;26.60;99.90
983;DHT22;480;48.124;11.578;2023-06-10T13:29:33;26.70;99.90
983;DHT22;480;48.124;11.578;2023-06-10T13:32:00;26.90;99.90
983;DHT22;480;48.124;11.578;2023-06-10T13:34:29;27.30;99.30
983;DHT22;480;48.124;11.578;2023-06-10T13:36:56;27.20;98.50
983;DHT22;480;48.124;11.578;2023-06-10T13:39:24;27.10;98.70
983;DHT22;480;48.124;11.578;2023-06-10T13:41:53;26.80;98.60
983;DHT22;480;48.124;11.578;2023-06-10T13:44:20;26.40;99.10
983;DHT22;480;48.124;11.578;2023-06-10T13:46:51;26.40;99.00
983;DHT22;480;48.124;11.578;2023-06-10T13:49:18;26.70;99.20
983;DHT22;480;48.124;11.578;2023-06-10T13:51:45;27.00;97.90
983;DHT22;480;48.124;11.578;2023-06-10T13:54:12;26.80;98.10
983;DHT22;480;48.124;11.578;2023-06-10T13:56:41;26.80;97.60
983;DHT22;480;48.124;11.578;2023-06-10T13:59:09;26.00;98.20
983;DHT22;480;48.124;11.578;2023-06-10T14:01:37;26.60;98.30
983;DHT22;480;48.124;11.578;2023-06-10T14:04:05;26.80;97.20
983;DHT22;480;48.124;11.578;2023-06-10T14:06:33;27.00;96.70
983;DHT22;480;48.124;11.578;2023-06-10T14:09:00;27.10;97.10
983;DHT22;480;48.124;11.578;2023-06-10T14:11:29;27.50;95.80
983;DHT22;480;48.124;11.578;2023-06-10T14:13:57;27.30;96.20
983;DHT22;480;48.124;11.578;2023-06-10T14:16:27;26.90;96.30
983;DHT22;480;48.124;11.578;2023-06-10T14:18:54;27.40;97.00
983;DHT22;480;48.124;11.578;2023-06-10T14:21:22;27.70;95.70
983;DHT22;480;48.124;11.578;2023-06-10T14:23:49;27.70;95.90
983;DHT22;480;48.124;11.578;2023-06-10T14:26:18;27.30;95.90
983;DHT22;480;48.124;11.578;2023-06-10T14:28:47;27.20;95.90
983;DHT22;480;48.124;11.578;2023-06-10T14:31:15;27.40;95.80
983;DHT22;480;48.124;11.578;2023-06-10T14:33:43;27.70;96.10
983;DHT22;480;48.124;11.578;2023-06-10T14:36:22;27.20;94.80
983;DHT22;480;48.124;11.578;2023-06-10T14:38:59;26.90;95.10
983;DHT22;480;48.124;11.578;2023-06-10T14:41:27;27.20;95.60
983;DHT22;480;48.124;11.578;2023-06-10T14:43:55;27.30;95.70
983;DHT22;480;48.124;11.578;2023-06-10T14:46:22;27.80;95.40
983;DHT22;480;48.124;11.578;2023-06-10T14:48:51;27.60;95.10
983;DHT22;480;48.124;11.578;2023-06-10T14:51:19;27.30;95.10
983;DHT22;480;48.124;11.578;2023-06-10T14:53:46;27.60;94.80
983;DHT22;480;48.124;11.578;2023-06-10T14:56:16;27.50;94.80
983;DHT22;480;48.124;11.578;2023-06-10T14:58:43;27.40;93.90
983;DHT22;480;48.124;11.578;2023-06-10T15:01:11;27.60;95.00
983;DHT22;480;48.124;11.578;2023-06-10T15:03:38;27.50;94.80
983;DHT22;480;48.124;11.578;2023-06-10T15:06:06;27.50;95.30
983;DHT22;480;48.124;11.578;2023-06-10T15:08:33;26.40;95.50
983;DHT22;480;48.124;11.578;2023-06-10T15:11:01;27.10;95.70
983;DHT22;480;48.124;11.578;2023-06-10T15:13:29;27.80;95.40
983;DHT22;480;48.124;11.578;2023-06-10T15:15:56;27.70;96.20
983;DHT22;480;48.124;11.578;2023-06-10T15:18:23;27.50;97.10
983;DHT22;480;48.124;11.578;2023-06-10T15:20:50;27.30;97.60
983;DHT22;480;48.124;11.578;2023-06-10T15:23:18;27.10;98.10
983;DHT22;480;48.124;11.578;2023-06-10T15:25:45;26.80;97.90
983;DHT22;480;48.124;11.578;2023-06-10T15:28:13;27.10;98.60
983;DHT22;480;48.124;11.578;2023-06-10T15:30:40;27.30;98.10
983;DHT22;480;48.124;11.578;2023-06-10T15:33:07;27.10;97.60
983;DHT22;480;48.124;11.578;2023-06-10T15:35:35;27.00;97.50
983;DHT22;480;48.124;11.578;2023-06-10T15:38:03;26.30;97.50
983;DHT22;480;48.124;11.578;2023-06-10T15:40:31;26.70;97.80
983;DHT22;480;48.124;11.578;2023-06-10T15:42:59;27.20;96.70
983;DHT22;480;48.124;11.578;2023-06-10T15:45:26;26.50;96.90
983;DHT22;480;48.124;11.578;2023-06-10T15:47:53;26.70;96.60
983;DHT22;480;48.124;11.578;2023-06-10T15:50:20;26.90;95.70
983;DHT22;480;48.124;11.578;2023-06-10T15:52:51;27.00;95.60
983;DHT22;480;48.124;11.578;2023-06-10T15:55:19;26.80;95.90
983;DHT22;480;48.124;11.578;2023-06-10T15:57:50;26.30;96.70
983;DHT22;480;48.124;11.578;2023-06-10T16:00:18;26.10;97.40
983;DHT22;480;48.124;11.578;2023-06-10T16:02:45;26.00;97.80
983;DHT22;480;48.124;11.578;2023-06-10T16:05:15;25.90;98.10
983;DHT22;480;48.124;11.578;2023-06-10T16:07:43;25.50;98.80
983;DHT22;480;48.124;11.578;2023-06-10T16:10:10;25.50;99.50
983;DHT22;480;48.124;11.578;2023-06-10T16:12:37;25.30;99.90
983;DHT22;480;48.124;11.578;2023-06-10T16:15:07;25.30;99.90
983;DHT22;480;48.124;11.578;2023-06-10T16:17:35;24.90;99.90
983;DHT22;480;48.124;11.578;2023-06-10T16:20:04;24.80;99.90
983;DHT22;480;48.124;11.578;2023-06-10T16:22:32;24.50;99.90
983;DHT22;480;48.124;11.578;2023-06-10T16:24:59;24.50;99.90
983;DHT22;480;48.124;11.578;2023-06-10T16:27:26;24.60;99.90
983;DHT22;480;48.124;11.578;2023-06-10T16:29:53;24.70;99.90